Terminal Aerodrome Forecast
Issued by NWS Sterling, VA

Current Version | Previous Version | Graphics & Text | Print | Product List | Glossary On
Versions: 1 2 3 4 5 6 7 8 9 10 11 12 13 14 15 16 17 18 19 20 21 22 23 24 25 26
000
FTUS41 KLWX 080859 AAA
TAFDCA
TAF AMD
KDCA 080859Z 0809/0912 VRB03KT P6SM OVC150
     FM090300 VRB03KT P6SM OVC090
     FM090800 VRB03KT 3SM -SN OVC015=

USA.gov is the U.S. government's official web portal to all federal, state and local government web resources and services.